sensor_id;sensor_type;location;lat;lon;timestamp;temperature;humidity
39519;DHT22;25200;53.394;10.414;2024-02-16T00:00:48;11.60;99.60
39519;DHT22;25200;53.394;10.414;2024-02-16T00:03:13;11.60;99.60
39519;DHT22;25200;53.394;10.414;2024-02-16T00:05:39;11.50;99.50
39519;DHT22;25200;53.394;10.414;2024-02-16T00:08:05;11.50;99.50
39519;DHT22;25200;53.394;10.414;2024-02-16T00:10:30;11.50;99.50
39519;DHT22;25200;53.394;10.414;2024-02-16T00:12:56;11.50;99.50
39519;DHT22;25200;53.394;10.414;2024-02-16T00:15:22;11.40;99.50
39519;DHT22;25200;53.394;10.414;2024-02-16T00:17:47;11.30;99.50
39519;DHT22;25200;53.394;10.414;2024-02-16T00:20:13;11.30;99.50
39519;DHT22;25200;53.394;10.414;2024-02-16T00:22:39;11.30;99.50
39519;DHT22;25200;53.394;10.414;2024-02-16T00:25:05;11.20;99.50
39519;DHT22;25200;53.394;10.414;2024-02-16T00:27:31;11.20;99.50
39519;DHT22;25200;53.394;10.414;2024-02-16T00:29:56;11.20;99.50
39519;DHT22;25200;53.394;10.414;2024-02-16T00:32:22;11.10;99.50
39519;DHT22;25200;53.394;10.414;2024-02-16T00:34:50;11.10;99.50
39519;DHT22;25200;53.394;10.414;2024-02-16T00:37:19;11.10;99.50
39519;DHT22;25200;53.394;10.414;2024-02-16T00:39:44;11.10;99.50
39519;DHT22;25200;53.394;10.414;2024-02-16T00:42:10;11.10;99.50
39519;DHT22;25200;53.394;10.414;2024-02-16T00:44:36;11.10;99.50
39519;DHT22;25200;53.394;10.414;2024-02-16T00:47:02;11.00;99.50
39519;DHT22;25200;53.394;10.414;2024-02-16T00:49:31;11.00;99.50
39519;DHT22;25200;53.394;10.414;2024-02-16T00:51:57;11.00;99.50
39519;DHT22;25200;53.394;10.414;2024-02-16T00:54:22;11.00;99.50
39519;DHT22;25200;53.394;10.414;2024-02-16T00:56:48;11.00;99.50
39519;DHT22;25200;53.394;10.414;2024-02-16T00:59:14;11.00;99.50
39519;DHT22;25200;53.394;10.414;2024-02-16T01:01:39;11.00;99.50
39519;DHT22;25200;53.394;10.414;2024-02-16T01:04:05;11.00;99.50
39519;DHT22;25200;53.394;10.414;2024-02-16T01:06:32;10.90;99.50
39519;DHT22;25200;53.394;10.414;2024-02-16T01:08:58;10.90;99.50
39519;DHT22;25200;53.394;10.414;2024-02-16T01:11:24;10.90;99.40
39519;DHT22;25200;53.394;10.414;2024-02-16T01:13:49;10.90;99.40
39519;DHT22;25200;53.394;10.414;2024-02-16T01:16:18;10.90;99.40
39519;DHT22;25200;53.394;10.414;2024-02-16T01:18:44;10.90;99.40
39519;DHT22;25200;53.394;10.414;2024-02-16T01:21:10;10.80;99.40
39519;DHT22;25200;53.394;10.414;2024-02-16T01:23:36;10.80;99.40
39519;DHT22;25200;53.394;10.414;2024-02-16T01:26:02;10.80;99.40
39519;DHT22;25200;53.394;10.414;2024-02-16T01:28:27;10.70;99.40
39519;DHT22;25200;53.394;10.414;2024-02-16T01:30:53;10.70;99.40
39519;DHT22;25200;53.394;10.414;2024-02-16T01:33:21;10.70;99.40
39519;DHT22;25200;53.394;10.414;2024-02-16T01:35:47;10.70;99.40
39519;DHT22;25200;53.394;10.414;2024-02-16T01:38:13;10.70;99.40
39519;DHT22;25200;53.394;10.414;2024-02-16T01:40:39;10.70;99.40
39519;DHT22;25200;53.394;10.414;2024-02-16T01:43:05;10.70;99.40
39519;DHT22;25200;53.394;10.414;2024-02-16T01:45:30;10.70;99.40
39519;DHT22;25200;53.394;10.414;2024-02-16T01:47:56;10.60;99.40
39519;DHT22;25200;53.394;10.414;2024-02-16T01:50:22;10.60;99.40
39519;DHT22;25200;53.394;10.414;2024-02-16T01:52:49;10.60;99.40
39519;DHT22;25200;53.394;10.414;2024-02-16T01:55:15;10.60;99.40
39519;DHT22;25200;53.394;10.414;2024-02-16T01:57:46;10.60;99.30
39519;DHT22;25200;53.394;10.414;2024-02-16T02:00:13;10.60;99.40
39519;DHT22;25200;53.394;10.414;2024-02-16T02:02:41;10.50;99.30
39519;DHT22;25200;53.394;10.414;2024-02-16T02:05:09;10.50;99.30
39519;DHT22;25200;53.394;10.414;2024-02-16T02:07:34;10.50;99.30
39519;DHT22;25200;53.394;10.414;2024-02-16T02:10:00;10.50;99.30
39519;DHT22;25200;53.394;10.414;2024-02-16T02:12:26;10.40;99.30
39519;DHT22;25200;53.394;10.414;2024-02-16T02:14:52;10.40;99.30
39519;DHT22;25200;53.394;10.414;2024-02-16T02:17:17;10.40;99.30
39519;DHT22;25200;53.394;10.414;2024-02-16T02:19:45;10.40;99.30
39519;DHT22;25200;53.394;10.414;2024-02-16T02:22:15;10.40;99.30
39519;DHT22;25200;53.394;10.414;2024-02-16T02:24:41;10.40;99.30
39519;DHT22;25200;53.394;10.414;2024-02-16T02:27:07;10.40;99.30
39519;DHT22;25200;53.394;10.414;2024-02-16T02:29:32;10.40;99.30
39519;DHT22;25200;53.394;10.414;2024-02-16T02:31:59;10.30;99.30
39519;DHT22;25200;53.394;10.414;2024-02-16T02:34:24;10.30;99.30
39519;DHT22;25200;53.394;10.414;2024-02-16T02:36:50;10.30;99.30
39519;DHT22;25200;53.394;10.414;2024-02-16T02:39:15;10.30;99.30
39519;DHT22;25200;53.394;10.414;2024-02-16T02:41:41;10.30;99.30
39519;DHT22;25200;53.394;10.414;2024-02-16T02:44:07;10.30;99.30
39519;DHT22;25200;53.394;10.414;2024-02-16T02:46:32;10.30;99.30
39519;DHT22;25200;53.394;10.414;2024-02-16T02:48:58;10.30;99.30
39519;DHT22;25200;53.394;10.414;2024-02-16T02:51:24;10.30;99.30
39519;DHT22;25200;53.394;10.414;2024-02-16T02:53:49;10.40;99.30
39519;DHT22;25200;53.394;10.414;2024-02-16T02:56:15;10.30;99.30
39519;DHT22;25200;53.394;10.414;2024-02-16T02:58:40;10.30;99.30
39519;DHT22;25200;53.394;10.414;2024-02-16T03:01:06;10.30;99.30
39519;DHT22;25200;53.394;10.414;2024-02-16T03:03:33;10.30;99.30
39519;DHT22;25200;53.394;10.414;2024-02-16T03:05:59;10.30;99.30
39519;DHT22;25200;53.394;10.414;2024-02-16T03:08:25;10.30;99.20
39519;DHT22;25200;53.394;10.414;2024-02-16T03:10:50;10.30;99.20
39519;DHT22;25200;53.394;10.414;2024-02-16T03:13:17;10.30;99.20
39519;DHT22;25200;53.394;10.414;2024-02-16T03:15:45;10.30;99.20
39519;DHT22;25200;53.394;10.414;2024-02-16T03:18:10;10.20;99.20
39519;DHT22;25200;53.394;10.414;2024-02-16T03:20:36;10.20;99.20
39519;DHT22;25200;53.394;10.414;2024-02-16T03:23:02;10.20;99.20
39519;DHT22;25200;53.394;10.414;2024-02-16T03:25:28;10.20;99.20
39519;DHT22;25200;53.394;10.414;2024-02-16T03:27:54;10.20;99.20
39519;DHT22;25200;53.394;10.414;2024-02-16T03:30:20;10.20;99.20
39519;DHT22;25200;53.394;10.414;2024-02-16T03:32:49;10.20;99.20
39519;DHT22;25200;53.394;10.414;2024-02-16T03:35:16;10.20;99.30
39519;DHT22;25200;53.394;10.414;2024-02-16T03:37:45;10.20;99.30
39519;DHT22;25200;53.394;10.414;2024-02-16T03:40:10;10.20;99.20
39519;DHT22;25200;53.394;10.414;2024-02-16T03:42:41;10.10;99.20
39519;DHT22;25200;53.394;10.414;2024-02-16T03:45:07;10.20;99.20
39519;DHT22;25200;53.394;10.414;2024-02-16T03:47:33;10.20;99.20
39519;DHT22;25200;53.394;10.414;2024-02-16T03:49:58;10.20;99.20
39519;DHT22;25200;53.394;10.414;2024-02-16T03:52:24;10.20;99.30
39519;DHT22;25200;53.394;10.414;2024-02-16T03:54:50;10.20;99.30
39519;DHT22;25200;53.394;10.414;2024-02-16T03:57:16;10.20;99.20
39519;DHT22;25200;53.394;10.414;2024-02-16T03:59:45;10.20;99.20
39519;DHT22;25200;53.394;10.414;2024-02-16T04:02:12;10.20;99.20
39519;DHT22;25200;53.394;10.414;2024-02-16T04:04:41;10.20;99.20
39519;DHT22;25200;53.394;10.414;2024-02-16T04:07:07;10.20;99.20
39519;DHT22;25200;53.394;10.414;2024-02-16T04:09:33;10.20;99.20
39519;DHT22;25200;53.394;10.414;2024-02-16T04:12:00;10.20;99.20
39519;DHT22;25200;53.394;10.414;2024-02-16T04:14:26;10.10;99.10
39519;DHT22;25200;53.394;10.414;2024-02-16T04:16:51;10.10;99.10
39519;DHT22;25200;53.394;10.414;2024-02-16T04:19:17;10.10;99.20
39519;DHT22;25200;53.394;10.414;2024-02-16T04:21:43;10.10;99.20
39519;DHT22;25200;53.394;10.414;2024-02-16T04:24:09;10.10;99.20
39519;DHT22;25200;53.394;10.414;2024-02-16T04:26:35;10.10;99.20
39519;DHT22;25200;53.394;10.414;2024-02-16T04:29:01;10.10;99.20
39519;DHT22;25200;53.394;10.414;2024-02-16T04:31:26;10.10;99.20
39519;DHT22;25200;53.394;10.414;2024-02-16T04:33:52;10.10;99.20
39519;DHT22;25200;53.394;10.414;2024-02-16T04:36:18;10.10;99.20
39519;DHT22;25200;53.394;10.414;2024-02-16T04:38:44;10.10;99.20
39519;DHT22;25200;53.394;10.414;2024-02-16T04:41:10;10.10;99.20
39519;DHT22;25200;53.394;10.414;2024-02-16T04:43:35;10.10;99.20
39519;DHT22;25200;53.394;10.414;2024-02-16T04:46:02;10.10;99.20
39519;DHT22;25200;53.394;10.414;2024-02-16T04:48:27;10.10;99.20
39519;DHT22;25200;53.394;10.414;2024-02-16T04:50:54;10.10;99.30
39519;DHT22;25200;53.394;10.414;2024-02-16T04:53:20;10.20;99.30
39519;DHT22;25200;53.394;10.414;2024-02-16T04:55:45;10.20;99.30
39519;DHT22;25200;53.394;10.414;2024-02-16T04:58:11;10.20;99.30
39519;DHT22;25200;53.394;10.414;2024-02-16T05:00:37;10.20;99.30
39519;DHT22;25200;53.394;10.414;2024-02-16T05:03:04;10.20;99.30
39519;DHT22;25200;53.394;10.414;2024-02-16T05:05:29;10.20;99.20
39519;DHT22;25200;53.394;10.414;2024-02-16T05:07:56;10.20;99.20
39519;DHT22;25200;53.394;10.414;2024-02-16T05:10:22;10.30;99.30
39519;DHT22;25200;53.394;10.414;2024-02-16T05:12:48;10.30;99.20
39519;DHT22;25200;53.394;10.414;2024-02-16T05:15:13;10.30;99.30
39519;DHT22;25200;53.394;10.414;2024-02-16T05:17:40;10.30;99.20
39519;DHT22;25200;53.394;10.414;2024-02-16T05:20:12;10.30;99.20
39519;DHT22;25200;53.394;10.414;2024-02-16T05:22:44;10.30;99.20
39519;DHT22;25200;53.394;10.414;2024-02-16T05:25:14;10.30;99.20
39519;DHT22;25200;53.394;10.414;2024-02-16T05:27:40;10.30;99.20
39519;DHT22;25200;53.394;10.414;2024-02-16T05:30:08;10.30;99.30
39519;DHT22;25200;53.394;10.414;2024-02-16T05:32:37;10.30;99.30
39519;DHT22;25200;53.394;10.414;2024-02-16T05:35:07;10.30;99.20
39519;DHT22;25200;53.394;10.414;2024-02-16T05:40:13;10.30;99.20
39519;DHT22;25200;53.394;10.414;2024-02-16T05:42:51;10.30;99.20
39519;DHT22;25200;53.394;10.414;2024-02-16T05:45:17;10.40;99.20
39519;DHT22;25200;53.394;10.414;2024-02-16T05:47:45;10.30;99.20
39519;DHT22;25200;53.394;10.414;2024-02-16T05:50:11;10.30;99.20
39519;DHT22;25200;53.394;10.414;2024-02-16T05:52:38;10.30;99.40
39519;DHT22;25200;53.394;10.414;2024-02-16T05:55:05;10.30;99.20
39519;DHT22;25200;53.394;10.414;2024-02-16T05:57:30;10.30;99.20
39519;DHT22;25200;53.394;10.414;2024-02-16T05:59:56;10.30;99.20
39519;DHT22;25200;53.394;10.414;2024-02-16T06:02:21;10.30;99.20
39519;DHT22;25200;53.394;10.414;2024-02-16T06:04:50;10.30;99.20
39519;DHT22;25200;53.394;10.414;2024-02-16T06:07:16;10.30;99.20
39519;DHT22;25200;53.394;10.414;2024-02-16T06:09:41;10.30;99.20
39519;DHT22;25200;53.394;10.414;2024-02-16T06:12:07;10.30;99.20
39519;DHT22;25200;53.394;10.414;2024-02-16T06:14:35;10.30;99.20
39519;DHT22;25200;53.394;10.414;2024-02-16T06:17:02;10.30;99.20
39519;DHT22;25200;53.394;10.414;2024-02-16T06:19:28;10.30;99.20
39519;DHT22;25200;53.394;10.414;2024-02-16T06:21:54;10.30;99.20
39519;DHT22;25200;53.394;10.414;2024-02-16T06:24:21;10.30;99.20
39519;DHT22;25200;53.394;10.414;2024-02-16T06:26:46;10.30;99.20
39519;DHT22;25200;53.394;10.414;2024-02-16T06:29:12;10.30;99.20
39519;DHT22;25200;53.394;10.414;2024-02-16T06:31:39;10.30;99.20
39519;DHT22;25200;53.394;10.414;2024-02-16T06:34:04;10.30;99.20
39519;DHT22;25200;53.394;10.414;2024-02-16T06:36:30;10.30;99.20
39519;DHT22;25200;53.394;10.414;2024-02-16T06:38:56;10.30;99.20
39519;DHT22;25200;53.394;10.414;2024-02-16T06:41:21;10.30;99.40
39519;DHT22;25200;53.394;10.414;2024-02-16T06:43:47;10.30;99.20
39519;DHT22;25200;53.394;10.414;2024-02-16T06:46:12;10.30;99.20
39519;DHT22;25200;53.394;10.414;2024-02-16T06:48:38;10.30;99.20
39519;DHT22;25200;53.394;10.414;2024-02-16T06:51:04;10.30;99.20
39519;DHT22;25200;53.394;10.414;2024-02-16T06:53:29;10.30;99.20
39519;DHT22;25200;53.394;10.414;2024-02-16T06:55:55;10.20;99.10
39519;DHT22;25200;53.394;10.414;2024-02-16T06:58:20;10.20;99.10
39519;DHT22;25200;53.394;10.414;2024-02-16T07:00:46;10.20;99.10
39519;DHT22;25200;53.394;10.414;2024-02-16T07:03:12;10.20;99.10
39519;DHT22;25200;53.394;10.414;2024-02-16T07:05:38;10.20;99.10
39519;DHT22;25200;53.394;10.414;2024-02-16T07:08:05;10.20;99.10
39519;DHT22;25200;53.394;10.414;2024-02-16T07:10:32;10.20;99.10
39519;DHT22;25200;53.394;10.414;2024-02-16T07:12:58;10.20;99.10
39519;DHT22;25200;53.394;10.414;2024-02-16T07:15:24;10.10;99.10
39519;DHT22;25200;53.394;10.414;2024-02-16T07:17:51;10.20;99.10
39519;DHT22;25200;53.394;10.414;2024-02-16T07:20:17;10.10;99.10
39519;DHT22;25200;53.394;10.414;2024-02-16T07:22:43;10.20;99.20
39519;DHT22;25200;53.394;10.414;2024-02-16T07:25:11;10.20;99.20
39519;DHT22;25200;53.394;10.414;2024-02-16T07:27:38;10.10;99.10
39519;DHT22;25200;53.394;10.414;2024-02-16T07:30:04;10.20;99.20
39519;DHT22;25200;53.394;10.414;2024-02-16T07:32:30;10.10;99.10
39519;DHT22;25200;53.394;10.414;2024-02-16T07:34:56;10.20;99.20
39519;DHT22;25200;53.394;10.414;2024-02-16T07:37:21;10.20;99.20
39519;DHT22;25200;53.394;10.414;2024-02-16T07:39:47;10.20;99.20
39519;DHT22;25200;53.394;10.414;2024-02-16T07:42:13;10.20;99.20
39519;DHT22;25200;53.394;10.414;2024-02-16T07:44:39;10.20;99.20
39519;DHT22;25200;53.394;10.414;2024-02-16T07:47:05;10.20;99.20
39519;DHT22;25200;53.394;10.414;2024-02-16T07:49:31;10.30;99.20
39519;DHT22;25200;53.394;10.414;2024-02-16T07:51:57;10.30;99.20
39519;DHT22;25200;53.394;10.414;2024-02-16T07:54:23;10.30;99.20
39519;DHT22;25200;53.394;10.414;2024-02-16T07:56:49;10.30;99.20
39519;DHT22;25200;53.394;10.414;2024-02-16T07:59:15;10.30;99.20
39519;DHT22;25200;53.394;10.414;2024-02-16T08:01:41;10.30;99.20
39519;DHT22;25200;53.394;10.414;2024-02-16T08:04:09;10.40;99.30
39519;DHT22;25200;53.394;10.414;2024-02-16T08:06:35;10.40;99.30
39519;DHT22;25200;53.394;10.414;2024-02-16T08:09:01;10.40;99.30
39519;DHT22;25200;53.394;10.414;2024-02-16T08:11:27;10.40;99.30
39519;DHT22;25200;53.394;10.414;2024-02-16T08:13:53;10.50;99.30
39519;DHT22;25200;53.394;10.414;2024-02-16T08:16:20;10.50;99.30
39519;DHT22;25200;53.394;10.414;2024-02-16T08:18:46;10.60;99.30
39519;DHT22;25200;53.394;10.414;2024-02-16T08:21:12;10.60;99.30
39519;DHT22;25200;53.394;10.414;2024-02-16T08:23:38;10.60;99.50
39519;DHT22;25200;53.394;10.414;2024-02-16T08:26:03;10.60;99.30
39519;DHT22;25200;53.394;10.414;2024-02-16T08:28:29;10.70;99.30
39519;DHT22;25200;53.394;10.414;2024-02-16T08:30:55;10.70;99.30
39519;DHT22;25200;53.394;10.414;2024-02-16T08:33:20;10.80;99.40
39519;DHT22;25200;53.394;10.414;2024-02-16T08:35:46;10.80;99.50
39519;DHT22;25200;53.394;10.414;2024-02-16T08:38:12;10.90;99.50
39519;DHT22;25200;53.394;10.414;2024-02-16T08:40:38;10.90;99.50
39519;DHT22;25200;53.394;10.414;2024-02-16T08:43:06;11.00;99.50
39519;DHT22;25200;53.394;10.414;2024-02-16T08:45:34;11.10;99.60
39519;DHT22;25200;53.394;10.414;2024-02-16T08:48:00;11.20;99.60
39519;DHT22;25200;53.394;10.414;2024-02-16T08:50:29;11.20;99.50
39519;DHT22;25200;53.394;10.414;2024-02-16T08:52:55;11.30;99.80
39519;DHT22;25200;53.394;10.414;2024-02-16T08:55:20;11.40;99.60
39519;DHT22;25200;53.394;10.414;2024-02-16T08:57:46;11.50;99.60
39519;DHT22;25200;53.394;10.414;2024-02-16T09:00:12;11.50;99.60
39519;DHT22;25200;53.394;10.414;2024-02-16T09:02:38;11.60;99.60
39519;DHT22;25200;53.394;10.414;2024-02-16T09:05:04;11.60;99.60
39519;DHT22;25200;53.394;10.414;2024-02-16T09:07:30;11.60;99.60
39519;DHT22;25200;53.394;10.414;2024-02-16T09:09:56;11.70;99.60
39519;DHT22;25200;53.394;10.414;2024-02-16T09:12:22;11.70;99.60
39519;DHT22;25200;53.394;10.414;2024-02-16T09:14:48;11.80;99.60
39519;DHT22;25200;53.394;10.414;2024-02-16T09:17:13;11.80;99.50
39519;DHT22;25200;53.394;10.414;2024-02-16T09:19:39;11.80;99.50
39519;DHT22;25200;53.394;10.414;2024-02-16T09:22:05;11.80;99.50
39519;DHT22;25200;53.394;10.414;2024-02-16T09:24:32;11.80;99.50
39519;DHT22;25200;53.394;10.414;2024-02-16T09:26:58;11.80;99.50
39519;DHT22;25200;53.394;10.414;2024-02-16T09:29:29;11.80;99.60
39519;DHT22;25200;53.394;10.414;2024-02-16T09:31:54;11.90;99.60
39519;DHT22;25200;53.394;10.414;2024-02-16T09:34:20;11.80;99.60
39519;DHT22;25200;53.394;10.414;2024-02-16T09:36:45;11.90;99.70
39519;DHT22;25200;53.394;10.414;2024-02-16T09:39:11;12.00;99.70
39519;DHT22;25200;53.394;10.414;2024-02-16T09:41:42;12.00;99.70
39519;DHT22;25200;53.394;10.414;2024-02-16T09:44:08;12.10;99.80
39519;DHT22;25200;53.394;10.414;2024-02-16T09:46:35;12.20;99.90
39519;DHT22;25200;53.394;10.414;2024-02-16T09:49:02;12.30;99.90
39519;DHT22;25200;53.394;10.414;2024-02-16T09:51:29;12.40;99.90
39519;DHT22;25200;53.394;10.414;2024-02-16T09:53:54;12.50;99.90
39519;DHT22;25200;53.394;10.414;2024-02-16T09:56:23;12.50;99.80
39519;DHT22;25200;53.394;10.414;2024-02-16T09:58:51;12.50;99.80
39519;DHT22;25200;53.394;10.414;2024-02-16T10:01:21;12.60;99.80
39519;DHT22;25200;53.394;10.414;2024-02-16T10:03:48;12.70;99.80
39519;DHT22;25200;53.394;10.414;2024-02-16T10:06:15;12.60;99.70
39519;DHT22;25200;53.394;10.414;2024-02-16T10:08:48;12.70;99.80
39519;DHT22;25200;53.394;10.414;2024-02-16T10:11:18;12.70;99.80
39519;DHT22;25200;53.394;10.414;2024-02-16T10:16:20;12.80;99.90
39519;DHT22;25200;53.394;10.414;2024-02-16T10:18:45;12.80;99.90
39519;DHT22;25200;53.394;10.414;2024-02-16T10:21:11;12.80;99.90
39519;DHT22;25200;53.394;10.414;2024-02-16T10:23:36;12.90;99.90
39519;DHT22;25200;53.394;10.414;2024-02-16T10:26:02;12.90;99.90
39519;DHT22;25200;53.394;10.414;2024-02-16T10:28:29;13.00;99.90
39519;DHT22;25200;53.394;10.414;2024-02-16T10:31:00;13.10;99.90
39519;DHT22;25200;53.394;10.414;2024-02-16T10:33:31;13.20;99.90
39519;DHT22;25200;53.394;10.414;2024-02-16T10:35:57;13.30;99.90
39519;DHT22;25200;53.394;10.414;2024-02-16T10:38:25;13.40;99.90
39519;DHT22;25200;53.394;10.414;2024-02-16T10:40:53;13.50;99.90
39519;DHT22;25200;53.394;10.414;2024-02-16T10:43:21;13.60;99.90
39519;DHT22;25200;53.394;10.414;2024-02-16T10:45:47;13.60;99.90
39519;DHT22;25200;53.394;10.414;2024-02-16T10:48:18;13.70;99.90
39519;DHT22;25200;53.394;10.414;2024-02-16T10:50:44;13.80;99.90
39519;DHT22;25200;53.394;10.414;2024-02-16T10:53:26;13.80;99.90
39519;DHT22;25200;53.394;10.414;2024-02-16T10:55:58;13.90;99.80
39519;DHT22;25200;53.394;10.414;2024-02-16T10:58:26;13.90;99.80
39519;DHT22;25200;53.394;10.414;2024-02-16T11:00:53;13.90;99.70
39519;DHT22;25200;53.394;10.414;2024-02-16T11:03:23;13.90;99.50
39519;DHT22;25200;53.394;10.414;2024-02-16T11:05:49;13.90;99.50
39519;DHT22;25200;53.394;10.414;2024-02-16T11:08:17;13.80;99.60
39519;DHT22;25200;53.394;10.414;2024-02-16T11:10:59;13.80;99.40
39519;DHT22;25200;53.394;10.414;2024-02-16T11:13:27;13.80;99.40
39519;DHT22;25200;53.394;10.414;2024-02-16T11:16:11;13.70;99.40
39519;DHT22;25200;53.394;10.414;2024-02-16T11:18:39;13.60;99.40
39519;DHT22;25200;53.394;10.414;2024-02-16T11:21:06;13.60;99.60
39519;DHT22;25200;53.394;10.414;2024-02-16T11:23:35;13.60;99.60
39519;DHT22;25200;53.394;10.414;2024-02-16T11:26:05;13.60;99.70
39519;DHT22;25200;53.394;10.414;2024-02-16T11:28:36;13.70;99.80
39519;DHT22;25200;53.394;10.414;2024-02-16T11:31:02;13.80;99.90
39519;DHT22;25200;53.394;10.414;2024-02-16T11:33:28;13.80;99.90
39519;DHT22;25200;53.394;10.414;2024-02-16T11:35:58;13.90;99.90
39519;DHT22;25200;53.394;10.414;2024-02-16T11:38:24;13.90;99.60
39519;DHT22;25200;53.394;10.414;2024-02-16T11:41:10;14.00;99.60
39519;DHT22;25200;53.394;10.414;2024-02-16T11:43:36;14.00;99.90
39519;DHT22;25200;53.394;10.414;2024-02-16T11:46:12;14.10;99.80
39519;DHT22;25200;53.394;10.414;2024-02-16T11:48:38;14.10;99.60
39519;DHT22;25200;53.394;10.414;2024-02-16T11:51:05;14.20;99.60
39519;DHT22;25200;53.394;10.414;2024-02-16T11:53:31;14.20;99.70
39519;DHT22;25200;53.394;10.414;2024-02-16T11:55:57;14.20;99.70
39519;DHT22;25200;53.394;10.414;2024-02-16T11:58:24;14.30;99.70
39519;DHT22;25200;53.394;10.414;2024-02-16T12:00:50;14.30;99.60
39519;DHT22;25200;53.394;10.414;2024-02-16T12:05:53;14.30;99.50
39519;DHT22;25200;53.394;10.414;2024-02-16T12:08:19;14.40;99.50
39519;DHT22;25200;53.394;10.414;2024-02-16T12:10:50;14.40;99.50
39519;DHT22;25200;53.394;10.414;2024-02-16T12:13:20;14.40;99.60
39519;DHT22;25200;53.394;10.414;2024-02-16T12:15:50;14.50;99.80
39519;DHT22;25200;53.394;10.414;2024-02-16T12:21:02;14.60;99.30
39519;DHT22;25200;53.394;10.414;2024-02-16T12:23:29;14.60;99.10
39519;DHT22;25200;53.394;10.414;2024-02-16T12:26:01;14.60;99.20
39519;DHT22;25200;53.394;10.414;2024-02-16T12:28:31;14.60;99.10
39519;DHT22;25200;53.394;10.414;2024-02-16T12:30:59;14.60;99.40
39519;DHT22;25200;53.394;10.414;2024-02-16T12:33:25;14.70;99.50
39519;DHT22;25200;53.394;10.414;2024-02-16T12:35:51;14.70;99.10
39519;DHT22;25200;53.394;10.414;2024-02-16T12:38:17;14.70;98.90
39519;DHT22;25200;53.394;10.414;2024-02-16T12:40:45;14.70;99.10
39519;DHT22;25200;53.394;10.414;2024-02-16T12:43:11;14.70;99.30
39519;DHT22;25200;53.394;10.414;2024-02-16T12:45:38;14.70;98.90
39519;DHT22;25200;53.394;10.414;2024-02-16T12:48:04;14.70;99.10
39519;DHT22;25200;53.394;10.414;2024-02-16T12:50:30;14.70;99.00
39519;DHT22;25200;53.394;10.414;2024-02-16T12:52:56;14.80;98.80
39519;DHT22;25200;53.394;10.414;2024-02-16T12:55:22;14.70;98.80
39519;DHT22;25200;53.394;10.414;2024-02-16T12:57:49;14.70;98.90
39519;DHT22;25200;53.394;10.414;2024-02-16T13:00:15;14.70;98.80
39519;DHT22;25200;53.394;10.414;2024-02-16T13:02:41;14.70;98.80
39519;DHT22;25200;53.394;10.414;2024-02-16T13:05:07;14.70;99.10
39519;DHT22;25200;53.394;10.414;2024-02-16T13:07:33;14.70;99.00
39519;DHT22;25200;53.394;10.414;2024-02-16T13:09:59;14.70;99.20
39519;DHT22;25200;53.394;10.414;2024-02-16T13:12:25;14.70;99.30
39519;DHT22;25200;53.394;10.414;2024-02-16T13:14:50;14.80;98.70
39519;DHT22;25200;53.394;10.414;2024-02-16T13:17:16;14.80;99.00
39519;DHT22;25200;53.394;10.414;2024-02-16T13:19:42;14.80;99.00
39519;DHT22;25200;53.394;10.414;2024-02-16T13:22:08;14.90;99.00
39519;DHT22;25200;53.394;10.414;2024-02-16T13:24:33;14.90;98.70
39519;DHT22;25200;53.394;10.414;2024-02-16T13:27:00;14.90;98.50
39519;DHT22;25200;53.394;10.414;2024-02-16T13:29:26;14.80;98.60
39519;DHT22;25200;53.394;10.414;2024-02-16T13:31:51;14.80;98.50
39519;DHT22;25200;53.394;10.414;2024-02-16T13:34:17;14.80;98.70
39519;DHT22;25200;53.394;10.414;2024-02-16T13:36:43;14.70;98.50
39519;DHT22;25200;53.394;10.414;2024-02-16T13:39:08;14.70;98.50
39519;DHT22;25200;53.394;10.414;2024-02-16T13:41:34;14.70;98.60
39519;DHT22;25200;53.394;10.414;2024-02-16T13:44:00;14.70;98.60
39519;DHT22;25200;53.394;10.414;2024-02-16T13:46:26;14.60;98.90
39519;DHT22;25200;53.394;10.414;2024-02-16T13:48:52;14.70;98.80
39519;DHT22;25200;53.394;10.414;2024-02-16T13:51:17;14.70;98.70
39519;DHT22;25200;53.394;10.414;2024-02-16T13:53:44;14.60;98.80
39519;DHT22;25200;53.394;10.414;2024-02-16T13:56:10;14.60;98.90
39519;DHT22;25200;53.394;10.414;2024-02-16T13:58:36;14.60;98.80
39519;DHT22;25200;53.394;10.414;2024-02-16T14:01:03;14.60;98.50
39519;DHT22;25200;53.394;10.414;2024-02-16T14:03:29;14.60;98.40
39519;DHT22;25200;53.394;10.414;2024-02-16T14:05:55;14.50;98.60
39519;DHT22;25200;53.394;10.414;2024-02-16T14:08:21;14.50;98.70
39519;DHT22;25200;53.394;10.414;2024-02-16T14:10:48;14.50;98.70
39519;DHT22;25200;53.394;10.414;2024-02-16T14:13:13;14.50;98.50
39519;DHT22;25200;53.394;10.414;2024-02-16T14:15:39;14.50;98.20
39519;DHT22;25200;53.394;10.414;2024-02-16T14:18:04;14.50;98.60
39519;DHT22;25200;53.394;10.414;2024-02-16T14:20:32;14.40;98.80
39519;DHT22;25200;53.394;10.414;2024-02-16T14:22:58;14.50;98.70
39519;DHT22;25200;53.394;10.414;2024-02-16T14:25:23;14.40;98.70
39519;DHT22;25200;53.394;10.414;2024-02-16T14:27:50;14.40;98.60
39519;DHT22;25200;53.394;10.414;2024-02-16T14:30:16;14.40;98.50
39519;DHT22;25200;53.394;10.414;2024-02-16T14:32:42;14.40;98.60
39519;DHT22;25200;53.394;10.414;2024-02-16T14:35:08;14.40;98.70
39519;DHT22;25200;53.394;10.414;2024-02-16T14:37:34;14.30;98.70
39519;DHT22;25200;53.394;10.414;2024-02-16T14:39:59;14.30;98.60
39519;DHT22;25200;53.394;10.414;2024-02-16T14:42:27;14.30;98.60
39519;DHT22;25200;53.394;10.414;2024-02-16T14:44:54;14.30;98.60
39519;DHT22;25200;53.394;10.414;2024-02-16T14:47:19;14.20;98.60
39519;DHT22;25200;53.394;10.414;2024-02-16T14:49:45;14.20;98.70
39519;DHT22;25200;53.394;10.414;2024-02-16T14:52:10;14.10;98.70
39519;DHT22;25200;53.394;10.414;2024-02-16T14:54:36;14.10;98.50
39519;DHT22;25200;53.394;10.414;2024-02-16T14:57:02;14.10;98.60
39519;DHT22;25200;53.394;10.414;2024-02-16T14:59:28;14.10;98.70
39519;DHT22;25200;53.394;10.414;2024-02-16T15:01:55;14.10;98.70
39519;DHT22;25200;53.394;10.414;2024-02-16T15:04:22;14.00;98.80
39519;DHT22;25200;53.394;10.414;2024-02-16T15:06:47;14.00;98.70
39519;DHT22;25200;53.394;10.414;2024-02-16T15:09:13;14.00;98.70
39519;DHT22;25200;53.394;10.414;2024-02-16T15:11:38;14.00;98.80
39519;DHT22;25200;53.394;10.414;2024-02-16T15:14:04;14.00;98.70
39519;DHT22;25200;53.394;10.414;2024-02-16T15:16:30;14.00;98.70
39519;DHT22;25200;53.394;10.414;2024-02-16T15:18:56;13.90;98.70
39519;DHT22;25200;53.394;10.414;2024-02-16T15:21:22;13.90;98.80